createdAt,value
2023-05-14T00:01:58.528Z,23.50
2023-05-14T00:05:59.940Z,23.25
2023-05-14T00:10:01.500Z,23.66
2023-05-14T00:14:02.969Z,23.34
2023-05-14T00:18:04.507Z,23.56
2023-05-14T00:22:05.883Z,23.16
2023-05-14T00:26:07.209Z,23.07
2023-05-14T00:30:08.914Z,23.40
2023-05-14T00:34:10.281Z,22.64
2023-05-14T00:38:16.766Z,22.80
2023-05-14T00:42:18.082Z,22.89
2023-05-14T00:46:19.800Z,22.98
2023-05-14T00:50:21.593Z,23.58
2023-05-14T00:54:23.156Z,23.62
2023-05-14T00:58:25.667Z,23.43
2023-05-14T01:02:27.118Z,23.39
2023-05-14T01:06:31.319Z,23.32
2023-05-14T01:10:42.200Z,23.28
2023-05-14T01:15:05.440Z,23.26
2023-05-14T01:19:18.655Z,23.28
2023-05-14T01:23:20.160Z,23.25
2023-05-14T01:27:52.875Z,23.16
2023-05-14T01:31:57.337Z,23.06
2023-05-14T01:35:58.881Z,22.88
2023-05-14T01:40:01.090Z,22.77
2023-05-14T01:44:02.437Z,22.66
2023-05-14T01:48:05.262Z,22.75
2023-05-14T01:52:08.405Z,22.80
2023-05-14T01:56:09.740Z,22.74
2023-05-14T02:00:11.528Z,22.62
2023-05-14T02:04:12.799Z,22.34
2023-05-14T02:08:14.193Z,22.43
2023-05-14T02:12:15.645Z,22.43
2023-05-14T02:16:16.997Z,22.38
2023-05-14T02:20:18.404Z,22.32
2023-05-14T02:24:19.753Z,22.41
2023-05-14T02:28:21.204Z,22.35
2023-05-14T02:32:22.689Z,21.95
2023-05-14T02:36:24.071Z,22.15
2023-05-14T02:40:25.763Z,22.15
2023-05-14T02:44:27.270Z,21.76
2023-05-14T02:48:28.658Z,21.80
2023-05-14T02:52:30.081Z,21.73
2023-05-14T02:56:31.449Z,21.99
2023-05-14T03:00:32.788Z,21.82
2023-05-14T03:04:34.476Z,21.76
2023-05-14T03:08:35.997Z,21.55
2023-05-14T03:12:37.376Z,21.08
2023-05-14T03:16:40.100Z,21.48
2023-05-14T03:20:42.203Z,21.58
2023-05-14T03:24:43.594Z,21.63
2023-05-14T03:28:44.901Z,21.55
2023-05-14T03:32:46.472Z,21.54
2023-05-14T03:36:47.877Z,21.57
2023-05-14T03:40:49.153Z,21.44
2023-05-14T03:44:50.496Z,21.57
2023-05-14T03:48:51.821Z,21.52
2023-05-14T03:52:53.525Z,21.52
2023-05-14T03:56:54.792Z,21.52
2023-05-14T04:00:56.197Z,21.57
2023-05-14T04:04:57.602Z,21.68
2023-05-14T04:08:58.977Z,21.59
2023-05-14T04:13:00.401Z,21.64
2023-05-14T04:17:01.706Z,21.62
2023-05-14T04:21:03.080Z,21.73
2023-05-14T04:25:04.725Z,21.76
2023-05-14T04:29:06.124Z,21.81
2023-05-14T04:33:07.482Z,21.80
2023-05-14T04:37:09.020Z,21.67
2023-05-14T04:41:10.461Z,21.84
2023-05-14T04:45:13.475Z,22.07
2023-05-14T04:49:14.862Z,21.99
2023-05-14T04:53:16.239Z,22.07
2023-05-14T04:57:17.672Z,22.19
2023-05-14T05:01:19.077Z,22.21
2023-05-14T05:05:20.669Z,22.30
2023-05-14T05:09:22.080Z,22.42
2023-05-14T05:13:23.390Z,22.53
2023-05-14T05:17:25.410Z,22.26
2023-05-14T05:21:26.873Z,22.24
2023-05-14T05:25:28.220Z,21.97
2023-05-14T05:29:29.634Z,21.90
2023-05-14T05:33:32.113Z,22.70
2023-05-14T05:37:33.490Z,23.05
2023-05-14T05:41:34.786Z,23.93
2023-05-14T05:45:36.198Z,24.31
2023-05-14T05:49:37.651Z,25.57
2023-05-14T05:53:39.007Z,25.74
2023-05-14T05:57:40.412Z,25.51
2023-05-14T06:01:43.451Z,26.29
2023-05-14T06:05:45.035Z,26.84
2023-05-14T06:09:46.531Z,27.53
2023-05-14T06:13:47.868Z,27.55
2023-05-14T06:17:49.272Z,27.53
2023-05-14T06:21:50.578Z,27.33
2023-05-14T06:25:52.540Z,27.33
2023-05-14T06:29:53.849Z,27.49
2023-05-14T06:33:55.226Z,27.75
2023-05-14T06:37:56.569Z,28.53
2023-05-14T06:41:57.841Z,29.23
2023-05-14T06:45:59.152Z,28.97
2023-05-14T06:51:09.172Z,29.91
2023-05-14T06:55:10.600Z,29.94
2023-05-14T06:59:12.129Z,29.62
2023-05-14T07:03:13.573Z,31.19
2023-05-14T07:07:18.184Z,31.46
2023-05-14T07:11:19.531Z,31.29
2023-05-14T07:15:21.172Z,31.97
2023-05-14T07:19:22.581Z,32.71
2023-05-14T07:23:23.945Z,33.74
2023-05-14T07:27:25.542Z,33.97
2023-05-14T07:31:27.060Z,34.00
2023-05-14T07:35:28.528Z,34.49
2023-05-14T07:39:29.841Z,34.91
2023-05-14T07:43:31.576Z,34.46
2023-05-14T07:47:33.298Z,34.00
2023-05-14T07:51:34.764Z,34.29
2023-05-14T07:55:36.647Z,34.98
2023-05-14T07:59:38.030Z,35.40
2023-05-14T08:03:40.013Z,35.41
2023-05-14T08:07:41.468Z,34.31
2023-05-14T08:11:42.833Z,34.62
2023-05-14T08:15:44.230Z,35.13
2023-05-14T08:19:45.619Z,35.91
2023-05-14T08:23:46.941Z,35.92
2023-05-14T08:27:48.242Z,37.00
2023-05-14T08:31:49.845Z,36.44
2023-05-14T08:35:54.540Z,37.07
2023-05-14T08:39:56.171Z,36.13
2023-05-14T08:44:12.223Z,36.55
2023-05-14T08:48:16.765Z,36.56
2023-05-14T08:52:20.148Z,35.95
2023-05-14T08:56:22.698Z,35.27
2023-05-14T09:00:24.980Z,35.98
2023-05-14T09:04:27.913Z,36.97
2023-05-14T09:08:29.456Z,34.00
2023-05-14T09:12:31.259Z,35.68
2023-05-14T09:16:32.889Z,36.99
2023-05-14T09:20:34.454Z,37.59
2023-05-14T09:24:36.092Z,39.00
2023-05-14T09:28:43.936Z,37.45
2023-05-14T09:32:46.090Z,38.26
2023-05-14T09:36:47.471Z,39.39
2023-05-14T09:40:48.755Z,40.08
2023-05-14T09:44:53.498Z,40.27
2023-05-14T09:48:55.959Z,39.58
2023-05-14T09:52:58.808Z,39.23
2023-05-14T09:57:00.349Z,39.58
2023-05-14T10:01:02.608Z,41.05
2023-05-14T10:05:06.390Z,41.10
2023-05-14T10:09:13.602Z,40.81
2023-05-14T10:13:22.263Z,38.60
2023-05-14T10:17:30.658Z,40.44
2023-05-14T10:21:36.452Z,39.62
2023-05-14T10:25:38.176Z,40.18
2023-05-14T10:29:39.564Z,37.44
2023-05-14T10:33:50.191Z,39.45
2023-05-14T10:37:51.808Z,39.46
2023-05-14T10:41:53.424Z,39.58
2023-05-14T10:45:55.782Z,39.17
2023-05-14T10:50:03.383Z,40.69
2023-05-14T10:54:08.204Z,40.96
2023-05-14T10:58:10.908Z,39.08
2023-05-14T11:02:32.955Z,40.51
2023-05-14T11:06:35.637Z,40.51
2023-05-14T11:10:38.850Z,39.51
2023-05-14T11:14:41.439Z,38.84
2023-05-14T11:18:42.781Z,39.11
2023-05-14T11:22:45.660Z,40.20
2023-05-14T11:26:47.088Z,36.97
2023-05-14T11:30:49.674Z,36.01
2023-05-14T11:34:51.372Z,36.08
2023-05-14T11:38:52.965Z,35.48
2023-05-14T11:42:54.495Z,34.64
2023-05-14T11:46:57.088Z,34.56
2023-05-14T11:50:58.449Z,34.35
2023-05-14T11:54:59.782Z,34.85
2023-05-14T11:59:01.199Z,35.12
2023-05-14T12:03:02.720Z,35.05
2023-05-14T12:07:12.551Z,35.78
2023-05-14T12:11:13.914Z,34.83
2023-05-14T12:15:16.885Z,35.33
2023-05-14T12:19:21.230Z,35.76
2023-05-14T12:23:33.198Z,35.24
2023-05-14T12:27:37.279Z,35.17
2023-05-14T12:31:45.678Z,35.71
2023-05-14T12:35:47.119Z,35.00
2023-05-14T12:39:48.540Z,35.80
2023-05-14T12:43:49.903Z,34.65
2023-05-14T12:47:51.277Z,34.57
2023-05-14T12:52:03.186Z,34.05
2023-05-14T12:56:14.577Z,33.41
2023-05-14T13:00:16.210Z,33.87
2023-05-14T13:04:17.754Z,31.62
2023-05-14T13:08:21.423Z,29.87
2023-05-14T13:12:23.696Z,31.49
2023-05-14T13:16:27.838Z,32.54
2023-05-14T13:20:30.983Z,33.71
2023-05-14T13:24:32.293Z,33.62
2023-05-14T13:28:33.867Z,34.21
2023-05-14T13:32:35.481Z,34.22
2023-05-14T13:36:39.561Z,34.72
2023-05-14T13:40:40.914Z,34.08
2023-05-14T13:44:42.238Z,33.62
2023-05-14T13:48:43.641Z,33.40
2023-05-14T13:52:44.975Z,33.54
2023-05-14T13:56:46.301Z,32.42
2023-05-14T14:00:47.596Z,34.04
2023-05-14T14:04:49.427Z,34.04
2023-05-14T14:08:50.935Z,32.86
2023-05-14T14:12:52.669Z,33.45
2023-05-14T14:16:54.045Z,33.30
2023-05-14T14:20:55.488Z,33.63
2023-05-14T14:24:56.851Z,33.24
2023-05-14T14:28:58.619Z,33.85
2023-05-14T14:33:01.260Z,30.62
2023-05-14T14:37:02.857Z,31.97
2023-05-14T14:41:04.342Z,30.52
2023-05-14T14:45:06.479Z,30.95
2023-05-14T14:49:07.852Z,31.60
2023-05-14T14:53:09.450Z,32.80
2023-05-14T14:57:10.783Z,31.82
2023-05-14T15:01:12.219Z,32.43
2023-05-14T15:05:13.582Z,30.60
2023-05-14T15:09:14.942Z,33.30
2023-05-14T15:13:16.290Z,33.42
2023-05-14T15:17:17.687Z,32.11
2023-05-14T15:21:19.106Z,31.23
2023-05-14T15:25:21.205Z,30.08
2023-05-14T15:29:22.699Z,31.34
2023-05-14T15:33:24.021Z,32.25
2023-05-14T15:37:26.645Z,32.94
2023-05-14T15:41:28.744Z,31.23
2023-05-14T15:45:30.250Z,32.91
2023-05-14T15:49:31.641Z,31.15
2023-05-14T15:53:33.320Z,30.76
2023-05-14T15:57:34.943Z,32.09
2023-05-14T16:01:36.324Z,32.20
2023-05-14T16:05:37.793Z,29.44
2023-05-14T16:09:39.414Z,31.53
2023-05-14T16:13:41.598Z,31.67
2023-05-14T16:17:43.130Z,30.52
2023-05-14T16:21:44.796Z,31.91
2023-05-14T16:25:46.294Z,31.81
2023-05-14T16:29:47.981Z,31.74
2023-05-14T16:33:49.362Z,30.22
2023-05-14T16:37:50.845Z,29.99
2023-05-14T16:41:52.197Z,31.24
2023-05-14T16:45:53.624Z,32.07
2023-05-14T16:49:55.213Z,32.34
2023-05-14T16:53:56.637Z,31.73
2023-05-14T16:57:57.979Z,32.23
2023-05-14T17:01:59.449Z,31.26
2023-05-14T17:06:01.010Z,31.10
2023-05-14T17:10:02.429Z,30.53
2023-05-14T17:14:03.984Z,30.02
2023-05-14T17:18:05.584Z,31.11
2023-05-14T17:22:07.226Z,31.08
2023-05-14T17:26:08.788Z,30.41
2023-05-14T17:30:10.668Z,31.37
2023-05-14T17:34:11.981Z,30.31
2023-05-14T17:38:13.650Z,29.91
2023-05-14T17:42:15.158Z,31.11
2023-05-14T17:46:16.621Z,30.89
2023-05-14T17:50:18.849Z,31.15
2023-05-14T17:54:20.354Z,31.28
2023-05-14T17:58:21.717Z,31.22
2023-05-14T18:02:23.093Z,30.57
2023-05-14T18:06:24.634Z,30.80
2023-05-14T18:10:26.416Z,29.34
2023-05-14T18:14:27.730Z,29.71
2023-05-14T18:18:29.187Z,30.29
2023-05-14T18:22:30.612Z,29.30
2023-05-14T18:26:34.192Z,28.95
2023-05-14T18:30:35.887Z,29.51
2023-05-14T18:34:37.236Z,29.23
2023-05-14T18:38:38.839Z,30.18
2023-05-14T18:42:48.500Z,30.49
2023-05-14T18:46:50.231Z,29.78
2023-05-14T18:50:51.848Z,29.91
2023-05-14T18:54:56.909Z,27.92
2023-05-14T18:58:58.225Z,28.86
2023-05-14T19:02:59.614Z,28.98
2023-05-14T19:07:01.042Z,28.98
2023-05-14T19:11:02.416Z,29.71
2023-05-14T19:15:04.497Z,29.03
2023-05-14T19:19:05.867Z,28.94
2023-05-14T19:23:07.435Z,28.53
2023-05-14T19:27:09.094Z,29.64
2023-05-14T19:31:10.926Z,29.06
2023-05-14T19:35:12.421Z,29.58
2023-05-14T19:39:13.808Z,28.90
2023-05-14T19:43:15.183Z,29.48
2023-05-14T19:47:18.242Z,28.22
2023-05-14T19:51:19.737Z,27.90
2023-05-14T19:55:21.081Z,28.68
2023-05-14T19:59:22.410Z,29.41
2023-05-14T20:03:27.000Z,27.41
2023-05-14T20:07:29.383Z,29.24
2023-05-14T20:11:30.793Z,28.55
2023-05-14T20:15:32.195Z,29.27
2023-05-14T20:19:33.751Z,29.23
2023-05-14T20:23:35.163Z,29.19
2023-05-14T20:27:36.689Z,28.88
2023-05-14T20:31:38.023Z,28.05
2023-05-14T20:35:41.425Z,28.53
2023-05-14T20:39:44.118Z,28.00
2023-05-14T20:43:45.434Z,28.69
2023-05-14T20:47:46.805Z,28.41
2023-05-14T20:51:48.247Z,28.38
2023-05-14T20:55:49.679Z,28.34
2023-05-14T20:59:51.028Z,28.58
2023-05-14T21:03:52.476Z,28.47
2023-05-14T21:07:53.963Z,28.55
2023-05-14T21:11:55.413Z,28.46
2023-05-14T21:15:56.868Z,28.35
2023-05-14T21:19:58.294Z,28.37
2023-05-14T21:23:59.631Z,28.26
2023-05-14T21:28:00.887Z,27.91
2023-05-14T21:32:02.321Z,28.20
2023-05-14T21:36:04.097Z,28.04
2023-05-14T21:40:09.219Z,28.05
2023-05-14T21:44:10.483Z,28.21
2023-05-14T21:48:11.964Z,28.23
2023-05-14T21:52:13.454Z,28.07
2023-05-14T21:56:15.310Z,28.13
2023-05-14T22:00:23.021Z,28.02
2023-05-14T22:04:24.301Z,27.96
2023-05-14T22:08:27.101Z,27.86
2023-05-14T22:12:28.567Z,27.74
2023-05-14T22:16:29.934Z,27.68
2023-05-14T22:20:31.386Z,27.57
2023-05-14T22:24:32.679Z,27.58
2023-05-14T22:28:34.061Z,27.47
2023-05-14T22:32:35.532Z,27.41
2023-05-14T22:36:37.064Z,27.16
2023-05-14T22:40:38.421Z,27.28
2023-05-14T22:44:39.775Z,27.02
2023-05-14T22:48:41.146Z,26.80
2023-05-14T22:52:42.486Z,26.57
2023-05-14T22:56:43.839Z,26.71
2023-05-14T23:00:45.239Z,26.68
2023-05-14T23:04:46.661Z,26.64
2023-05-14T23:08:48.184Z,26.55
2023-05-14T23:12:49.511Z,26.57
2023-05-14T23:16:50.953Z,26.28
2023-05-14T23:20:52.347Z,26.36
2023-05-14T23:24:53.721Z,26.41
2023-05-14T23:28:55.183Z,26.29
2023-05-14T23:32:56.620Z,26.30
2023-05-14T23:36:57.968Z,26.38
2023-05-14T23:40:59.324Z,26.32
2023-05-14T23:45:00.649Z,26.03
2023-05-14T23:49:02.028Z,25.98
2023-05-14T23:53:03.824Z,25.91
2023-05-14T23:57:05.480Z,25.82
